Time,TemperatureF,DewpointF,PressureIn,WindDirection,WindDirectionDegrees,WindSpeedMPH,WindSpeedGustMPH,Humidity,HourlyPrecipIn,Conditions,Clouds,dailyrainin,SolarRadiationWatts/m^2,SoftwareType,DateUTC
2013-02-27 00:10:00,40.3,40.0,29.83,East,85,5.0,-999.0,97,-99.99,,,0.34,0,weatherlink.com 1.10,2013-02-27 05:10:00,
2013-02-27 00:25:00,40.8,40.0,29.84,East,80,6.0,-999.0,97,-99.99,,,0.38,0,weatherlink.com 1.10,2013-02-27 05:25:00,
2013-02-27 00:40:00,40.9,40.0,29.82,East,80,7.0,-999.0,97,-99.99,,,0.41,0,weatherlink.com 1.10,2013-02-27 05:40:00,
2013-02-27 00:55:00,41.2,40.0,29.81,NE,47,5.0,-999.0,97,-99.99,,,0.43,0,weatherlink.com 1.10,2013-02-27 05:55:00,
2013-02-27 01:10:00,41.5,41.0,29.79,ENE,74,17.0,-999.0,97,-99.99,,,0.46,0,weatherlink.com 1.10,2013-02-27 06:10:00,
2013-02-27 01:25:00,41.8,41.0,29.79,ESE,102,6.0,-999.0,97,-99.99,,,0.48,0,weatherlink.com 1.10,2013-02-27 06:25:00,
2013-02-27 01:55:00,42.1,41.0,29.75,East,83,4.0,-999.0,97,-99.99,,,0.53,0,weatherlink.com 1.10,2013-02-27 06:55:00,
2013-02-27 02:10:00,42.2,42.0,29.72,East,91,12.0,-999.0,98,-99.99,,,0.02,0,weatherlink.com 1.10,2013-02-27 07:10:00,
2013-02-27 02:25:00,42.2,42.0,29.72,ENE,78,10.0,-999.0,98,-99.99,,,0.05,0,weatherlink.com 1.10,2013-02-27 07:25:00,
2013-02-27 02:40:00,42.2,42.0,29.70,NNE,26,2.0,-999.0,98,-99.99,,,0.08,0,weatherlink.com 1.10,2013-02-27 07:40:00,
2013-02-27 02:55:00,42.3,42.0,29.69,ESE,120,8.0,-999.0,98,-99.99,,,0.09,0,weatherlink.com 1.10,2013-02-27 07:55:00,
2013-02-27 03:10:00,42.6,42.0,29.68,NNE,22,5.0,-999.0,98,-99.99,,,0.12,0,weatherlink.com 1.10,2013-02-27 08:10:00,
2013-02-27 03:25:00,43.1,43.0,29.66,ENE,65,8.0,-999.0,98,-99.99,,,0.16,0,weatherlink.com 1.10,2013-02-27 08:25:00,
2013-02-27 03:40:00,43.6,43.0,29.65,East,82,7.0,-999.0,98,-99.99,,,0.19,0,weatherlink.com 1.10,2013-02-27 08:40:00,
2013-02-27 03:55:00,43.9,43.0,29.64,North,5,4.0,-999.0,98,-99.99,,,0.22,0,weatherlink.com 1.10,2013-02-27 08:55:00,
2013-02-27 04:10:00,44.2,44.0,29.64,NE,49,2.0,-999.0,98,-99.99,,,0.26,0,weatherlink.com 1.10,2013-02-27 09:10:00,
2013-02-27 04:25:00,44.8,45.0,29.63,NE,39,8.0,-999.0,99,-99.99,,,0.29,0,weatherlink.com 1.10,2013-02-27 09:25:00,
2013-02-27 04:40:00,44.8,44.0,29.62,ENE,57,5.0,-999.0,98,-99.99,,,0.31,0,weatherlink.com 1.10,2013-02-27 09:40:00,
2013-02-27 04:55:00,44.9,44.0,29.61,East,84,3.0,-999.0,98,-99.99,,,0.34,0,weatherlink.com 1.10,2013-02-27 09:55:00,
2013-02-27 05:11:00,44.9,44.0,29.60,ENE,61,2.0,-999.0,98,-99.99,,,0.35,0,weatherlink.com 1.10,2013-02-27 10:11:00,
2013-02-27 05:26:00,44.7,44.0,29.59,NE,51,4.0,-999.0,98,-99.99,,,0.37,0,weatherlink.com 1.10,2013-02-27 10:26:00,
2013-02-27 05:41:00,44.7,44.0,29.59,NNW,347,2.0,-999.0,98,-99.99,,,0.39,0,weatherlink.com 1.10,2013-02-27 10:41:00,
2013-02-27 05:56:00,45.3,45.0,29.59,NE,44,0.0,-999.0,99,-99.99,,,0.41,0,weatherlink.com 1.10,2013-02-27 10:56:00,
2013-02-27 06:11:00,45.4,45.0,29.58,ENE,71,4.0,-999.0,99,-99.99,,,0.43,0,weatherlink.com 1.10,2013-02-27 11:11:00,
2013-02-27 06:26:00,45.5,45.0,29.57,NE,36,0.0,-999.0,99,-99.99,,,0.44,0,weatherlink.com 1.10,2013-02-27 11:26:00,
2013-02-27 06:41:00,45.6,45.0,29.56,ESE,105,7.0,-999.0,99,-99.99,,,0.44,0,weatherlink.com 1.10,2013-02-27 11:41:00,
2013-02-27 06:56:00,46.2,46.0,29.55,NE,46,4.0,-999.0,99,-99.99,,,0.44,0,weatherlink.com 1.10,2013-02-27 11:56:00,
2013-02-27 07:11:00,46.4,46.0,29.54,NE,43,3.0,-999.0,99,-99.99,,,0.45,0,weatherlink.com 1.10,2013-02-27 12:11:00,
2013-02-27 07:26:00,46.7,47.0,29.54,East,80,3.0,-999.0,99,-99.99,,,0.45,11,weatherlink.com 1.10,2013-02-27 12:26:00,
2013-02-27 07:41:00,46.9,47.0,29.53,NNE,32,3.0,-999.0,99,-99.99,,,0.45,14,weatherlink.com 1.10,2013-02-27 12:41:00,
2013-02-27 07:56:00,46.6,46.0,29.53,NNE,15,4.0,-999.0,99,-99.99,,,0.45,37,weatherlink.com 1.10,2013-02-27 12:56:00,
2013-02-27 08:11:00,46.7,47.0,29.52,ENE,60,1.0,-999.0,99,-99.99,,,0.45,26,weatherlink.com 1.10,2013-02-27 13:11:00,
2013-02-27 08:26:00,46.8,47.0,29.52,ENE,72,6.0,-999.0,99,-99.99,,,0.45,62,weatherlink.com 1.10,2013-02-27 13:26:00,
2013-02-27 08:56:00,47.1,47.0,29.52,East,96,4.0,-999.0,99,-99.99,,,0.45,69,weatherlink.com 1.10,2013-02-27 13:56:00,
2013-02-27 09:11:00,47.0,47.0,29.51,ENE,61,2.0,-999.0,99,-99.99,,,0.45,70,weatherlink.com 1.10,2013-02-27 14:11:00,
2013-02-27 09:26:00,47.1,47.0,29.52,East,81,4.0,-999.0,99,-99.99,,,0.46,63,weatherlink.com 1.10,2013-02-27 14:26:00,
2013-02-27 09:41:00,47.3,47.0,29.52,ENE,75,0.0,-999.0,99,-99.99,,,0.46,132,weatherlink.com 1.10,2013-02-27 14:41:00,
2013-02-27 09:56:00,47.7,48.0,29.53,SW,223,3.0,-999.0,100,-99.99,,,0.46,84,weatherlink.com 1.10,2013-02-27 14:56:00,
2013-02-27 10:11:00,48.1,48.0,29.52,SSE,157,0.0,-999.0,99,-99.99,,,0.46,195,weatherlink.com 1.10,2013-02-27 15:11:00,
2013-02-27 10:26:00,48.5,48.0,29.52,SSE,157,0.0,-999.0,99,-99.99,,,0.46,153,weatherlink.com 1.10,2013-02-27 15:26:00,
2013-02-27 10:41:00,49.3,49.0,29.51,SSE,157,0.0,-999.0,100,-99.99,,,0.46,162,weatherlink.com 1.10,2013-02-27 15:41:00,
2013-02-27 10:56:00,49.9,50.0,29.51,SSE,157,1.0,-999.0,100,-99.99,,,0.46,123,weatherlink.com 1.10,2013-02-27 15:56:00,
2013-02-27 11:11:00,50.2,50.0,29.52,SSE,157,1.0,-999.0,100,-99.99,,,0.46,104,weatherlink.com 1.10,2013-02-27 16:11:00,
2013-02-27 11:26:00,50.5,51.0,29.52,SSE,157,1.0,-999.0,100,-99.99,,,0.46,156,weatherlink.com 1.10,2013-02-27 16:26:00,
2013-02-27 11:42:00,52.1,52.0,29.52,WSW,238,3.0,-999.0,100,-99.99,,,0.46,183,weatherlink.com 1.10,2013-02-27 16:42:00,
2013-02-27 11:57:00,52.3,52.0,29.50,West,265,3.0,-999.0,100,-99.99,,,0.46,376,weatherlink.com 1.10,2013-02-27 16:57:00,
2013-02-27 12:12:00,52.6,52.0,29.50,West,281,7.0,-999.0,99,-99.99,,,0.46,51,weatherlink.com 1.10,2013-02-27 17:12:00,
2013-02-27 12:27:00,52.2,51.0,29.51,WNW,285,7.0,-999.0,96,-99.99,,,0.46,144,weatherlink.com 1.10,2013-02-27 17:27:00,
2013-02-27 12:42:00,51.8,50.0,29.51,West,271,6.0,-999.0,93,-99.99,,,0.46,100,weatherlink.com 1.10,2013-02-27 17:42:00,
2013-02-27 12:57:00,51.2,49.0,29.52,SW,217,10.0,-999.0,92,-99.99,,,0.46,95,weatherlink.com 1.10,2013-02-27 17:57:00,
2013-02-27 13:12:00,50.9,48.0,29.52,SW,219,3.0,-999.0,90,-99.99,,,0.46,77,weatherlink.com 1.10,2013-02-27 18:12:00,
2013-02-27 13:27:00,50.4,48.0,29.52,West,281,5.0,-999.0,91,-99.99,,,0.46,95,weatherlink.com 1.10,2013-02-27 18:27:00,
2013-02-27 13:42:00,50.4,48.0,29.53,West,264,11.0,-999.0,91,-99.99,,,0.46,236,weatherlink.com 1.10,2013-02-27 18:42:00,
2013-02-27 13:57:00,50.9,47.0,29.53,West,275,7.0,-999.0,86,-99.99,,,0.46,230,weatherlink.com 1.10,2013-02-27 18:57:00,
2013-02-27 14:12:00,50.8,46.0,29.54,WSW,256,7.0,-999.0,84,-99.99,,,0.46,163,weatherlink.com 1.10,2013-02-27 19:12:00,
2013-02-27 14:27:00,50.9,46.0,29.55,NW,305,3.0,-999.0,84,-99.99,,,0.46,740,weatherlink.com 1.10,2013-02-27 19:27:00,
2013-02-27 14:42:00,51.5,46.0,29.55,North,5,3.0,-999.0,80,-99.99,,,0.46,144,weatherlink.com 1.10,2013-02-27 19:42:00,
2013-02-27 14:57:00,51.3,45.0,29.55,WNW,290,2.0,-999.0,79,-99.99,,,0.46,90,weatherlink.com 1.10,2013-02-27 19:57:00,
2013-02-27 15:12:00,52.7,45.0,29.56,WSW,258,3.0,-999.0,75,-99.99,,,0.46,585,weatherlink.com 1.10,2013-02-27 20:12:00,
2013-02-27 15:27:00,52.8,43.0,29.57,WNW,293,7.0,-999.0,70,-99.99,,,0.46,179,weatherlink.com 1.10,2013-02-27 20:27:00,
2013-02-27 15:42:00,52.0,42.0,29.57,WNW,286,6.0,-999.0,70,-99.99,,,0.46,83,weatherlink.com 1.10,2013-02-27 20:42:00,
2013-02-27 15:57:00,51.1,42.0,29.59,NW,318,8.0,-999.0,72,-99.99,,,0.46,98,weatherlink.com 1.10,2013-02-27 20:57:00,
2013-02-27 16:12:00,50.6,41.0,29.59,West,263,13.0,-999.0,70,-99.99,,,0.46,74,weatherlink.com 1.10,2013-02-27 21:12:00,
2013-02-27 16:27:00,50.0,42.0,29.60,West,271,5.0,-999.0,73,-99.99,,,0.46,42,weatherlink.com 1.10,2013-02-27 21:27:00,
2013-02-27 16:42:00,49.3,40.0,29.60,WSW,254,10.0,-999.0,70,-99.99,,,0.46,42,weatherlink.com 1.10,2013-02-27 21:42:00,
2013-02-27 16:57:00,48.9,40.0,29.61,West,262,4.0,-999.0,71,-99.99,,,0.46,30,weatherlink.com 1.10,2013-02-27 21:57:00,
2013-02-27 17:12:00,48.9,40.0,29.61,SW,236,4.0,-999.0,72,-99.99,,,0.46,40,weatherlink.com 1.10,2013-02-27 22:12:00,
2013-02-27 17:27:00,48.7,40.0,29.62,WSW,250,3.0,-999.0,72,-99.99,,,0.46,11,weatherlink.com 1.10,2013-02-27 22:27:00,
2013-02-27 17:42:00,48.6,40.0,29.63,WNW,285,10.0,-999.0,72,-99.99,,,0.46,0,weatherlink.com 1.10,2013-02-27 22:42:00,
2013-02-27 17:57:00,48.1,40.0,29.63,West,261,4.0,-999.0,73,-99.99,,,0.46,0,weatherlink.com 1.10,2013-02-27 22:57:00,
2013-02-27 18:12:00,47.7,40.0,29.64,WSW,249,4.0,-999.0,74,-99.99,,,0.46,0,weatherlink.com 1.10,2013-02-27 23:12:00,
2013-02-27 18:27:00,47.5,40.0,29.64,West,266,3.0,-999.0,75,-99.99,,,0.46,0,weatherlink.com 1.10,2013-02-27 23:27:00,
2013-02-27 18:42:00,47.3,40.0,29.65,West,266,2.0,-999.0,76,-99.99,,,0.46,0,weatherlink.com 1.10,2013-02-27 23:42:00,
2013-02-27 18:57:00,47.0,40.0,29.65,West,266,0.0,-999.0,76,-99.99,,,0.46,0,weatherlink.com 1.10,2013-02-27 23:57:00,
2013-02-27 19:12:00,46.1,40.0,29.65,West,266,0.0,-999.0,78,-99.99,,,0.46,0,weatherlink.com 1.10,2013-02-28 00:12:00,
2013-02-27 19:27:00,45.2,39.0,29.66,West,266,0.0,-999.0,80,-99.99,,,0.46,0,weatherlink.com 1.10,2013-02-28 00:27:00,
2013-02-27 19:42:00,43.8,39.0,29.65,West,266,0.0,-999.0,83,-99.99,,,0.46,0,weatherlink.com 1.10,2013-02-28 00:42:00,
2013-02-27 19:57:00,42.5,39.0,29.66,West,266,0.0,-999.0,86,-99.99,,,0.46,0,weatherlink.com 1.10,2013-02-28 00:57:00,
2013-02-27 20:12:00,41.8,39.0,29.66,West,266,0.0,-999.0,88,-99.99,,,0.46,0,weatherlink.com 1.10,2013-02-28 01:12:00,
2013-02-27 20:27:00,41.4,39.0,29.66,West,266,0.0,-999.0,90,-99.99,,,0.46,0,weatherlink.com 1.10,2013-02-28 01:27:00,
2013-02-27 20:42:00,41.5,39.0,29.67,West,266,0.0,-999.0,91,-99.99,,,0.46,0,weatherlink.com 1.10,2013-02-28 01:42:00,
2013-02-27 20:57:00,41.6,39.0,29.67,West,266,0.0,-999.0,91,-99.99,,,0.46,0,weatherlink.com 1.10,2013-02-28 01:57:00,
2013-02-27 21:12:00,41.6,39.0,29.67,West,266,0.0,-999.0,91,-99.99,,,0.46,0,weatherlink.com 1.10,2013-02-28 02:12:00,
2013-02-27 21:27:00,41.8,40.0,29.67,West,266,0.0,-999.0,92,-99.99,,,0.46,0,weatherlink.com 1.10,2013-02-28 02:27:00,
2013-02-27 21:42:00,41.9,40.0,29.67,West,266,0.0,-999.0,92,-99.99,,,0.46,0,weatherlink.com 1.10,2013-02-28 02:42:00,
2013-02-27 21:57:00,42.0,40.0,29.67,West,266,0.0,-999.0,92,-99.99,,,0.46,0,weatherlink.com 1.10,2013-02-28 02:57:00,
2013-02-27 22:12:00,42.1,40.0,29.67,West,266,0.0,-999.0,92,-99.99,,,0.46,0,weatherlink.com 1.10,2013-02-28 03:12:00,
2013-02-27 22:27:00,42.1,40.0,29.66,West,266,0.0,-999.0,92,-99.99,,,0.46,0,weatherlink.com 1.10,2013-02-28 03:27:00,
2013-02-27 22:42:00,42.0,40.0,29.66,West,266,0.0,-999.0,92,-99.99,,,0.46,0,weatherlink.com 1.10,2013-02-28 03:42:00,
2013-02-27 22:57:00,42.2,40.0,29.66,West,266,0.0,-999.0,93,-99.99,,,0.46,0,weatherlink.com 1.10,2013-02-28 03:57:00,
2013-02-27 23:20:00,42.2,40.0,29.65,West,266,0.0,-999.0,93,-99.99,,,0.46,0,weatherlink.com 1.10,2013-02-28 04:20:00,
2013-02-27 23:27:00,42.1,40.0,29.65,West,266,0.0,-999.0,93,-99.99,,,0.46,0,weatherlink.com 1.10,2013-02-28 04:27:00,
2013-02-27 23:42:00,42.0,40.0,29.64,West,266,0.0,-999.0,93,-99.99,,,0.46,0,weatherlink.com 1.10,2013-02-28 04:42:00,